sensor_id;sensor_type;location;lat;lon;timestamp;P1;durP1;ratioP1;P2;durP2;ratioP2
68806;SDS011;55800;54.272;18.558;2023-11-18T00:01:50;23.20;;;14.75;;
68806;SDS011;55800;54.272;18.558;2023-11-18T00:04:19;32.00;;;14.00;;
68806;SDS011;55800;54.272;18.558;2023-11-18T00:09:19;23.60;;;15.05;;
68806;SDS011;55800;54.272;18.558;2023-11-18T00:11:53;24.45;;;12.93;;
68806;SDS011;55800;54.272;18.558;2023-11-18T00:14:22;24.40;;;14.02;;
68806;SDS011;55800;54.272;18.558;2023-11-18T00:16:52;20.55;;;12.48;;
68806;SDS011;55800;54.272;18.558;2023-11-18T00:19:21;22.05;;;12.23;;
68806;SDS011;55800;54.272;18.558;2023-11-18T00:24:20;21.77;;;12.07;;
68806;SDS011;55800;54.272;18.558;2023-11-18T00:26:50;22.23;;;12.32;;
68806;SDS011;55800;54.272;18.558;2023-11-18T00:29:22;18.77;;;11.25;;
68806;SDS011;55800;54.272;18.558;2023-11-18T00:31:53;20.45;;;12.00;;
68806;SDS011;55800;54.272;18.558;2023-11-18T00:34:22;16.48;;;11.07;;
68806;SDS011;55800;54.272;18.558;2023-11-18T00:36:52;22.40;;;12.77;;
68806;SDS011;55800;54.272;18.558;2023-11-18T00:39:21;20.95;;;12.40;;
68806;SDS011;55800;54.272;18.558;2023-11-18T00:44:24;22.08;;;12.50;;
68806;SDS011;55800;54.272;18.558;2023-11-18T00:46:54;25.45;;;12.95;;
68806;SDS011;55800;54.272;18.558;2023-11-18T00:49:24;23.27;;;12.90;;
68806;SDS011;55800;54.272;18.558;2023-11-18T00:51:54;19.55;;;12.73;;
68806;SDS011;55800;54.272;18.558;2023-11-18T00:54:23;26.35;;;13.52;;
68806;SDS011;55800;54.272;18.558;2023-11-18T00:56:55;19.90;;;11.85;;
68806;SDS011;55800;54.272;18.558;2023-11-18T00:59:24;21.58;;;12.73;;
68806;SDS011;55800;54.272;18.558;2023-11-18T01:01:55;20.17;;;13.18;;
68806;SDS011;55800;54.272;18.558;2023-11-18T01:04:24;16.95;;;12.07;;
68806;SDS011;55800;54.272;18.558;2023-11-18T01:06:54;22.17;;;13.18;;
68806;SDS011;55800;54.272;18.558;2023-11-18T01:09:24;21.17;;;13.23;;
68806;SDS011;55800;54.272;18.558;2023-11-18T01:11:56;19.90;;;11.38;;
68806;SDS011;55800;54.272;18.558;2023-11-18T01:14:35;22.02;;;11.90;;
68806;SDS011;55800;54.272;18.558;2023-11-18T01:17:06;22.55;;;11.75;;
68806;SDS011;55800;54.272;18.558;2023-11-18T01:19:37;17.08;;;10.63;;
68806;SDS011;55800;54.272;18.558;2023-11-18T01:22:06;17.08;;;10.65;;
68806;SDS011;55800;54.272;18.558;2023-11-18T01:24:38;15.32;;;10.05;;
68806;SDS011;55800;54.272;18.558;2023-11-18T01:27:09;18.50;;;11.30;;
68806;SDS011;55800;54.272;18.558;2023-11-18T01:29:38;19.15;;;10.57;;
68806;SDS011;55800;54.272;18.558;2023-11-18T01:32:09;14.80;;;8.95;;
68806;SDS011;55800;54.272;18.558;2023-11-18T01:34:38;15.40;;;9.88;;
68806;SDS011;55800;54.272;18.558;2023-11-18T01:37:10;16.45;;;10.45;;
68806;SDS011;55800;54.272;18.558;2023-11-18T01:39:40;15.98;;;11.25;;
68806;SDS011;55800;54.272;18.558;2023-11-18T01:42:11;19.52;;;11.57;;
68806;SDS011;55800;54.272;18.558;2023-11-18T01:44:40;22.90;;;11.13;;
68806;SDS011;55800;54.272;18.558;2023-11-18T01:47:10;15.63;;;10.25;;
68806;SDS011;55800;54.272;18.558;2023-11-18T01:49:39;18.33;;;10.25;;
68806;SDS011;55800;54.272;18.558;2023-11-18T01:52:10;16.98;;;10.77;;
68806;SDS011;55800;54.272;18.558;2023-11-18T01:54:39;15.73;;;10.65;;
68806;SDS011;55800;54.272;18.558;2023-11-18T01:57:13;21.85;;;9.88;;
68806;SDS011;55800;54.272;18.558;2023-11-18T01:59:43;15.43;;;10.18;;
68806;SDS011;55800;54.272;18.558;2023-11-18T02:02:12;15.60;;;8.68;;
68806;SDS011;55800;54.272;18.558;2023-11-18T02:07:12;13.88;;;7.53;;
68806;SDS011;55800;54.272;18.558;2023-11-18T02:09:42;14.18;;;8.63;;
68806;SDS011;55800;54.272;18.558;2023-11-18T02:12:21;14.70;;;7.72;;
68806;SDS011;55800;54.272;18.558;2023-11-18T02:14:55;13.55;;;8.48;;
68806;SDS011;55800;54.272;18.558;2023-11-18T02:17:29;14.85;;;9.43;;
68806;SDS011;55800;54.272;18.558;2023-11-18T02:19:59;14.15;;;8.73;;
68806;SDS011;55800;54.272;18.558;2023-11-18T02:22:33;15.30;;;9.27;;
68806;SDS011;55800;54.272;18.558;2023-11-18T02:25:03;18.30;;;8.85;;
68806;SDS011;55800;54.272;18.558;2023-11-18T02:27:38;17.08;;;8.98;;
68806;SDS011;55800;54.272;18.558;2023-11-18T02:30:08;14.95;;;8.57;;
68806;SDS011;55800;54.272;18.558;2023-11-18T02:32:42;14.57;;;9.40;;
68806;SDS011;55800;54.272;18.558;2023-11-18T02:35:22;15.10;;;8.95;;
68806;SDS011;55800;54.272;18.558;2023-11-18T02:37:54;13.48;;;8.65;;
68806;SDS011;55800;54.272;18.558;2023-11-18T02:40:27;15.02;;;8.93;;
68806;SDS011;55800;54.272;18.558;2023-11-18T02:43:01;13.73;;;7.93;;
68806;SDS011;55800;54.272;18.558;2023-11-18T02:45:33;13.38;;;7.72;;
68806;SDS011;55800;54.272;18.558;2023-11-18T02:48:05;14.63;;;7.95;;
68806;SDS011;55800;54.272;18.558;2023-11-18T02:50:34;12.88;;;7.55;;
68806;SDS011;55800;54.272;18.558;2023-11-18T02:53:05;14.75;;;7.55;;
68806;SDS011;55800;54.272;18.558;2023-11-18T02:55:36;16.42;;;7.60;;
68806;SDS011;55800;54.272;18.558;2023-11-18T02:58:09;11.15;;;7.28;;
68806;SDS011;55800;54.272;18.558;2023-11-18T03:00:38;10.35;;;7.55;;
68806;SDS011;55800;54.272;18.558;2023-11-18T03:03:08;13.18;;;7.38;;
68806;SDS011;55800;54.272;18.558;2023-11-18T03:05:37;13.60;;;8.45;;
68806;SDS011;55800;54.272;18.558;2023-11-18T03:08:07;15.23;;;7.57;;
68806;SDS011;55800;54.272;18.558;2023-11-18T03:10:38;13.30;;;7.65;;
68806;SDS011;55800;54.272;18.558;2023-11-18T03:13:12;14.32;;;8.65;;
68806;SDS011;55800;54.272;18.558;2023-11-18T03:15:42;14.32;;;7.70;;
68806;SDS011;55800;54.272;18.558;2023-11-18T03:18:12;14.02;;;7.50;;
68806;SDS011;55800;54.272;18.558;2023-11-18T03:20:42;15.13;;;7.45;;
68806;SDS011;55800;54.272;18.558;2023-11-18T03:23:12;14.93;;;9.95;;
68806;SDS011;55800;54.272;18.558;2023-11-18T03:25:41;14.63;;;9.43;;
68806;SDS011;55800;54.272;18.558;2023-11-18T03:33:45;11.32;;;7.60;;
68806;SDS011;55800;54.272;18.558;2023-11-18T03:36:14;13.13;;;8.68;;
68806;SDS011;55800;54.272;18.558;2023-11-18T03:38:45;14.38;;;7.72;;
68806;SDS011;55800;54.272;18.558;2023-11-18T03:41:15;13.65;;;8.25;;
68806;SDS011;55800;54.272;18.558;2023-11-18T03:43:46;14.52;;;9.45;;
68806;SDS011;55800;54.272;18.558;2023-11-18T03:46:15;14.02;;;7.47;;
68806;SDS011;55800;54.272;18.558;2023-11-18T03:48:45;12.70;;;6.57;;
68806;SDS011;55800;54.272;18.558;2023-11-18T03:51:14;11.95;;;7.38;;
68806;SDS011;55800;54.272;18.558;2023-11-18T03:53:45;12.65;;;6.47;;
68806;SDS011;55800;54.272;18.558;2023-11-18T03:56:16;16.65;;;9.27;;
68806;SDS011;55800;54.272;18.558;2023-11-18T03:58:48;12.75;;;7.60;;
68806;SDS011;55800;54.272;18.558;2023-11-18T04:01:19;14.15;;;7.93;;
68806;SDS011;55800;54.272;18.558;2023-11-18T04:03:50;11.73;;;7.20;;
68806;SDS011;55800;54.272;18.558;2023-11-18T04:06:19;13.75;;;8.05;;
68806;SDS011;55800;54.272;18.558;2023-11-18T04:08:51;11.38;;;7.22;;
68806;SDS011;55800;54.272;18.558;2023-11-18T04:11:20;10.68;;;7.45;;
68806;SDS011;55800;54.272;18.558;2023-11-18T04:13:52;15.00;;;8.45;;
68806;SDS011;55800;54.272;18.558;2023-11-18T04:16:21;12.52;;;7.53;;
68806;SDS011;55800;54.272;18.558;2023-11-18T04:18:50;12.02;;;7.15;;
68806;SDS011;55800;54.272;18.558;2023-11-18T04:21:19;11.90;;;7.75;;
68806;SDS011;55800;54.272;18.558;2023-11-18T04:23:49;11.75;;;6.78;;
68806;SDS011;55800;54.272;18.558;2023-11-18T04:26:18;11.18;;;6.97;;
68806;SDS011;55800;54.272;18.558;2023-11-18T04:28:48;12.05;;;7.05;;
68806;SDS011;55800;54.272;18.558;2023-11-18T04:31:18;14.80;;;7.13;;
68806;SDS011;55800;54.272;18.558;2023-11-18T04:33:48;15.75;;;8.35;;
68806;SDS011;55800;54.272;18.558;2023-11-18T04:36:17;14.25;;;7.20;;
68806;SDS011;55800;54.272;18.558;2023-11-18T04:38:49;15.73;;;8.15;;
68806;SDS011;55800;54.272;18.558;2023-11-18T04:41:18;12.45;;;8.18;;
68806;SDS011;55800;54.272;18.558;2023-11-18T04:43:48;19.90;;;8.93;;
68806;SDS011;55800;54.272;18.558;2023-11-18T04:46:19;12.45;;;8.07;;
68806;SDS011;55800;54.272;18.558;2023-11-18T04:48:49;13.10;;;7.03;;
68806;SDS011;55800;54.272;18.558;2023-11-18T04:51:20;17.95;;;8.93;;
68806;SDS011;55800;54.272;18.558;2023-11-18T04:53:51;11.27;;;7.13;;
68806;SDS011;55800;54.272;18.558;2023-11-18T04:56:20;14.13;;;9.15;;
68806;SDS011;55800;54.272;18.558;2023-11-18T04:58:50;12.75;;;7.35;;
68806;SDS011;55800;54.272;18.558;2023-11-18T05:01:20;14.02;;;7.50;;
68806;SDS011;55800;54.272;18.558;2023-11-18T05:03:50;12.45;;;7.85;;
68806;SDS011;55800;54.272;18.558;2023-11-18T05:06:20;12.90;;;8.25;;
68806;SDS011;55800;54.272;18.558;2023-11-18T05:08:49;14.32;;;9.55;;
68806;SDS011;55800;54.272;18.558;2023-11-18T05:11:18;13.20;;;9.13;;
68806;SDS011;55800;54.272;18.558;2023-11-18T05:16:17;13.33;;;7.70;;
68806;SDS011;55800;54.272;18.558;2023-11-18T05:18:48;12.90;;;8.40;;
68806;SDS011;55800;54.272;18.558;2023-11-18T05:21:18;14.63;;;7.07;;
68806;SDS011;55800;54.272;18.558;2023-11-18T05:23:47;16.45;;;8.38;;
68806;SDS011;55800;54.272;18.558;2023-11-18T05:26:17;12.65;;;7.72;;
68806;SDS011;55800;54.272;18.558;2023-11-18T05:28:47;15.40;;;8.32;;
68806;SDS011;55800;54.272;18.558;2023-11-18T05:31:17;15.27;;;8.35;;
68806;SDS011;55800;54.272;18.558;2023-11-18T05:33:46;15.10;;;8.38;;
68806;SDS011;55800;54.272;18.558;2023-11-18T05:36:22;16.67;;;9.45;;
68806;SDS011;55800;54.272;18.558;2023-11-18T05:38:55;15.98;;;8.55;;
68806;SDS011;55800;54.272;18.558;2023-11-18T05:41:24;12.68;;;8.43;;
68806;SDS011;55800;54.272;18.558;2023-11-18T05:43:57;17.55;;;9.90;;
68806;SDS011;55800;54.272;18.558;2023-11-18T05:46:27;13.85;;;8.07;;
68806;SDS011;55800;54.272;18.558;2023-11-18T05:49:01;15.95;;;9.57;;
68806;SDS011;55800;54.272;18.558;2023-11-18T05:51:34;15.35;;;9.82;;
68806;SDS011;55800;54.272;18.558;2023-11-18T05:54:05;18.23;;;11.05;;
68806;SDS011;55800;54.272;18.558;2023-11-18T05:56:34;14.40;;;8.45;;
68806;SDS011;55800;54.272;18.558;2023-11-18T06:01:33;12.85;;;8.65;;
68806;SDS011;55800;54.272;18.558;2023-11-18T06:04:06;11.13;;;8.32;;
68806;SDS011;55800;54.272;18.558;2023-11-18T06:06:37;15.43;;;9.38;;
68806;SDS011;55800;54.272;18.558;2023-11-18T06:11:44;14.63;;;8.40;;
68806;SDS011;55800;54.272;18.558;2023-11-18T06:14:14;14.80;;;9.27;;
68806;SDS011;55800;54.272;18.558;2023-11-18T06:16:45;15.00;;;9.63;;
68806;SDS011;55800;54.272;18.558;2023-11-18T06:19:18;15.32;;;9.52;;
68806;SDS011;55800;54.272;18.558;2023-11-18T06:21:48;13.85;;;8.25;;
68806;SDS011;55800;54.272;18.558;2023-11-18T06:24:17;13.05;;;8.48;;
68806;SDS011;55800;54.272;18.558;2023-11-18T06:26:48;17.35;;;9.57;;
68806;SDS011;55800;54.272;18.558;2023-11-18T06:29:19;17.33;;;8.80;;
68806;SDS011;55800;54.272;18.558;2023-11-18T06:31:48;17.27;;;9.48;;
68806;SDS011;55800;54.272;18.558;2023-11-18T06:34:19;17.45;;;10.38;;
68806;SDS011;55800;54.272;18.558;2023-11-18T06:36:49;17.45;;;9.05;;
68806;SDS011;55800;54.272;18.558;2023-11-18T06:39:18;11.48;;;7.72;;
68806;SDS011;55800;54.272;18.558;2023-11-18T06:41:52;16.17;;;8.95;;
68806;SDS011;55800;54.272;18.558;2023-11-18T06:44:23;19.75;;;10.75;;
68806;SDS011;55800;54.272;18.558;2023-11-18T06:46:52;17.30;;;10.70;;
68806;SDS011;55800;54.272;18.558;2023-11-18T06:51:53;13.70;;;8.13;;
68806;SDS011;55800;54.272;18.558;2023-11-18T06:54:22;16.98;;;10.35;;
68806;SDS011;55800;54.272;18.558;2023-11-18T06:56:54;16.63;;;10.13;;
68806;SDS011;55800;54.272;18.558;2023-11-18T06:59:23;16.55;;;8.80;;
68806;SDS011;55800;54.272;18.558;2023-11-18T07:01:53;15.57;;;9.77;;
68806;SDS011;55800;54.272;18.558;2023-11-18T07:06:53;17.15;;;10.23;;
68806;SDS011;55800;54.272;18.558;2023-11-18T07:09:23;19.00;;;9.48;;
68806;SDS011;55800;54.272;18.558;2023-11-18T07:11:53;16.23;;;9.90;;
68806;SDS011;55800;54.272;18.558;2023-11-18T07:14:24;20.88;;;9.93;;
68806;SDS011;55800;54.272;18.558;2023-11-18T07:16:53;19.23;;;10.80;;
68806;SDS011;55800;54.272;18.558;2023-11-18T07:19:24;19.90;;;10.07;;
68806;SDS011;55800;54.272;18.558;2023-11-18T07:21:55;22.42;;;11.25;;
68806;SDS011;55800;54.272;18.558;2023-11-18T07:24:36;18.98;;;10.35;;
68806;SDS011;55800;54.272;18.558;2023-11-18T07:27:07;15.70;;;12.02;;
68806;SDS011;55800;54.272;18.558;2023-11-18T07:29:38;20.17;;;10.68;;
68806;SDS011;55800;54.272;18.558;2023-11-18T07:32:08;19.98;;;10.85;;
68806;SDS011;55800;54.272;18.558;2023-11-18T07:34:39;21.40;;;10.30;;
68806;SDS011;55800;54.272;18.558;2023-11-18T07:37:08;16.88;;;9.82;;
68806;SDS011;55800;54.272;18.558;2023-11-18T07:39:40;19.48;;;9.80;;
68806;SDS011;55800;54.272;18.558;2023-11-18T07:42:11;20.35;;;11.68;;
68806;SDS011;55800;54.272;18.558;2023-11-18T07:44:42;18.85;;;10.25;;
68806;SDS011;55800;54.272;18.558;2023-11-18T07:47:11;19.00;;;11.73;;
68806;SDS011;55800;54.272;18.558;2023-11-18T07:49:44;17.85;;;11.00;;
68806;SDS011;55800;54.272;18.558;2023-11-18T07:52:15;19.45;;;11.63;;
68806;SDS011;55800;54.272;18.558;2023-11-18T07:54:44;22.88;;;13.27;;
68806;SDS011;55800;54.272;18.558;2023-11-18T07:57:18;23.77;;;13.13;;
68806;SDS011;55800;54.272;18.558;2023-11-18T07:59:52;26.48;;;13.57;;
68806;SDS011;55800;54.272;18.558;2023-11-18T08:02:22;24.52;;;13.80;;
68806;SDS011;55800;54.272;18.558;2023-11-18T08:04:53;21.02;;;13.23;;
68806;SDS011;55800;54.272;18.558;2023-11-18T08:07:23;27.60;;;14.73;;
68806;SDS011;55800;54.272;18.558;2023-11-18T08:09:53;32.08;;;15.02;;
68806;SDS011;55800;54.272;18.558;2023-11-18T08:12:22;22.75;;;12.93;;
68806;SDS011;55800;54.272;18.558;2023-11-18T08:17:21;27.33;;;13.57;;
68806;SDS011;55800;54.272;18.558;2023-11-18T08:19:54;27.98;;;14.77;;
68806;SDS011;55800;54.272;18.558;2023-11-18T08:22:24;22.52;;;12.27;;
68806;SDS011;55800;54.272;18.558;2023-11-18T08:24:55;32.30;;;16.17;;
68806;SDS011;55800;54.272;18.558;2023-11-18T08:27:26;33.42;;;14.48;;
68806;SDS011;55800;54.272;18.558;2023-11-18T08:29:55;22.38;;;13.68;;
68806;SDS011;55800;54.272;18.558;2023-11-18T08:34:56;32.33;;;14.45;;
68806;SDS011;55800;54.272;18.558;2023-11-18T08:37:25;26.15;;;15.18;;
68806;SDS011;55800;54.272;18.558;2023-11-18T08:42:24;30.63;;;15.37;;
68806;SDS011;55800;54.272;18.558;2023-11-18T08:44:55;27.17;;;15.73;;
68806;SDS011;55800;54.272;18.558;2023-11-18T08:47:29;29.73;;;14.65;;
68806;SDS011;55800;54.272;18.558;2023-11-18T08:50:01;28.00;;;13.93;;
68806;SDS011;55800;54.272;18.558;2023-11-18T08:52:39;22.17;;;12.32;;
68806;SDS011;55800;54.272;18.558;2023-11-18T08:55:10;26.48;;;15.13;;
68806;SDS011;55800;54.272;18.558;2023-11-18T08:57:46;25.50;;;13.65;;
68806;SDS011;55800;54.272;18.558;2023-11-18T09:00:25;26.13;;;14.77;;
68806;SDS011;55800;54.272;18.558;2023-11-18T09:03:15;27.33;;;16.58;;
68806;SDS011;55800;54.272;18.558;2023-11-18T09:05:56;29.02;;;15.57;;
68806;SDS011;55800;54.272;18.558;2023-11-18T09:08:27;25.17;;;14.43;;
68806;SDS011;55800;54.272;18.558;2023-11-18T09:10:59;25.85;;;15.07;;
68806;SDS011;55800;54.272;18.558;2023-11-18T09:13:32;23.08;;;14.88;;
68806;SDS011;55800;54.272;18.558;2023-11-18T09:16:03;29.20;;;15.80;;
68806;SDS011;55800;54.272;18.558;2023-11-18T09:18:36;26.85;;;15.38;;
68806;SDS011;55800;54.272;18.558;2023-11-18T09:21:11;32.38;;;17.02;;
68806;SDS011;55800;54.272;18.558;2023-11-18T09:23:43;30.30;;;17.05;;
68806;SDS011;55800;54.272;18.558;2023-11-18T09:26:15;28.58;;;15.90;;
68806;SDS011;55800;54.272;18.558;2023-11-18T09:28:44;26.65;;;14.57;;
68806;SDS011;55800;54.272;18.558;2023-11-18T09:31:20;27.50;;;15.80;;
68806;SDS011;55800;54.272;18.558;2023-11-18T09:33:49;26.75;;;13.23;;
68806;SDS011;55800;54.272;18.558;2023-11-18T09:36:21;32.00;;;14.82;;
68806;SDS011;55800;54.272;18.558;2023-11-18T09:38:51;28.58;;;16.63;;
68806;SDS011;55800;54.272;18.558;2023-11-18T09:41:22;25.95;;;14.00;;
68806;SDS011;55800;54.272;18.558;2023-11-18T09:43:54;27.67;;;16.67;;
68806;SDS011;55800;54.272;18.558;2023-11-18T09:46:29;33.25;;;17.35;;
68806;SDS011;55800;54.272;18.558;2023-11-18T09:49:06;29.27;;;15.20;;
68806;SDS011;55800;54.272;18.558;2023-11-18T09:51:44;27.63;;;17.13;;
68806;SDS011;55800;54.272;18.558;2023-11-18T09:54:17;25.23;;;16.35;;
68806;SDS011;55800;54.272;18.558;2023-11-18T09:56:59;28.38;;;16.50;;
68806;SDS011;55800;54.272;18.558;2023-11-18T09:59:39;28.33;;;16.67;;
68806;SDS011;55800;54.272;18.558;2023-11-18T10:02:20;29.77;;;18.30;;
68806;SDS011;55800;54.272;18.558;2023-11-18T10:04:52;36.63;;;18.58;;
68806;SDS011;55800;54.272;18.558;2023-11-18T10:07:27;30.48;;;18.80;;
68806;SDS011;55800;54.272;18.558;2023-11-18T10:10:00;27.33;;;16.08;;
68806;SDS011;55800;54.272;18.558;2023-11-18T10:12:32;29.83;;;15.43;;
68806;SDS011;55800;54.272;18.558;2023-11-18T10:15:05;29.52;;;16.90;;
68806;SDS011;55800;54.272;18.558;2023-11-18T10:17:39;27.92;;;14.40;;
68806;SDS011;55800;54.272;18.558;2023-11-18T10:20:22;22.23;;;12.52;;
68806;SDS011;55800;54.272;18.558;2023-11-18T10:23:13;20.70;;;12.35;;
68806;SDS011;55800;54.272;18.558;2023-11-18T10:25:47;21.45;;;12.02;;
68806;SDS011;55800;54.272;18.558;2023-11-18T10:28:22;25.42;;;10.52;;
68806;SDS011;55800;54.272;18.558;2023-11-18T10:30:55;20.92;;;10.30;;
68806;SDS011;55800;54.272;18.558;2023-11-18T10:33:26;14.88;;;8.95;;
68806;SDS011;55800;54.272;18.558;2023-11-18T10:35:58;17.85;;;10.73;;
68806;SDS011;55800;54.272;18.558;2023-11-18T10:38:33;17.02;;;9.18;;
68806;SDS011;55800;54.272;18.558;2023-11-18T10:41:10;13.48;;;9.75;;
68806;SDS011;55800;54.272;18.558;2023-11-18T10:43:40;14.20;;;8.48;;
68806;SDS011;55800;54.272;18.558;2023-11-18T10:46:11;12.60;;;7.95;;
68806;SDS011;55800;54.272;18.558;2023-11-18T10:48:42;16.17;;;9.05;;
68806;SDS011;55800;54.272;18.558;2023-11-18T10:51:15;14.15;;;8.27;;
68806;SDS011;55800;54.272;18.558;2023-11-18T10:53:49;11.63;;;7.72;;
68806;SDS011;55800;54.272;18.558;2023-11-18T10:56:26;13.13;;;8.32;;
68806;SDS011;55800;54.272;18.558;2023-11-18T10:58:57;16.35;;;7.90;;
68806;SDS011;55800;54.272;18.558;2023-11-18T11:01:27;13.82;;;8.75;;
68806;SDS011;55800;54.272;18.558;2023-11-18T11:03:59;12.80;;;7.75;;
68806;SDS011;55800;54.272;18.558;2023-11-18T11:06:32;14.80;;;8.18;;
68806;SDS011;55800;54.272;18.558;2023-11-18T11:09:03;13.95;;;8.25;;
68806;SDS011;55800;54.272;18.558;2023-11-18T11:11:43;14.68;;;9.55;;
68806;SDS011;55800;54.272;18.558;2023-11-18T11:14:16;12.90;;;8.82;;
68806;SDS011;55800;54.272;18.558;2023-11-18T11:16:51;14.90;;;8.50;;
68806;SDS011;55800;54.272;18.558;2023-11-18T11:19:24;14.48;;;7.45;;
68806;SDS011;55800;54.272;18.558;2023-11-18T11:22:00;14.23;;;9.00;;
68806;SDS011;55800;54.272;18.558;2023-11-18T11:24:40;18.35;;;8.55;;
68806;SDS011;55800;54.272;18.558;2023-11-18T11:27:28;12.27;;;9.13;;
68806;SDS011;55800;54.272;18.558;2023-11-18T11:30:08;14.07;;;8.20;;
68806;SDS011;55800;54.272;18.558;2023-11-18T11:32:49;17.05;;;9.13;;
68806;SDS011;55800;54.272;18.558;2023-11-18T11:35:22;17.48;;;9.60;;
68806;SDS011;55800;54.272;18.558;2023-11-18T11:37:57;18.73;;;10.07;;
68806;SDS011;55800;54.272;18.558;2023-11-18T11:40:38;19.25;;;11.38;;
68806;SDS011;55800;54.272;18.558;2023-11-18T11:43:09;16.95;;;11.10;;
68806;SDS011;55800;54.272;18.558;2023-11-18T11:45:43;17.02;;;9.60;;
68806;SDS011;55800;54.272;18.558;2023-11-18T11:48:14;16.63;;;9.50;;
68806;SDS011;55800;54.272;18.558;2023-11-18T11:51:02;20.05;;;10.63;;
68806;SDS011;55800;54.272;18.558;2023-11-18T11:53:42;26.27;;;13.05;;
68806;SDS011;55800;54.272;18.558;2023-11-18T11:56:17;21.77;;;12.80;;
68806;SDS011;55800;54.272;18.558;2023-11-18T11:58:51;25.48;;;13.02;;
68806;SDS011;55800;54.272;18.558;2023-11-18T12:03:57;19.38;;;11.38;;
68806;SDS011;55800;54.272;18.558;2023-11-18T12:06:34;24.35;;;12.13;;
68806;SDS011;55800;54.272;18.558;2023-11-18T12:09:11;22.77;;;13.32;;
68806;SDS011;55800;54.272;18.558;2023-11-18T12:11:48;22.83;;;12.23;;
68806;SDS011;55800;54.272;18.558;2023-11-18T12:14:18;23.13;;;12.32;;
68806;SDS011;55800;54.272;18.558;2023-11-18T12:17:05;23.15;;;11.13;;
68806;SDS011;55800;54.272;18.558;2023-11-18T12:19:37;23.85;;;13.32;;
68806;SDS011;55800;54.272;18.558;2023-11-18T12:22:15;21.93;;;11.70;;
68806;SDS011;55800;54.272;18.558;2023-11-18T12:28:09;21.05;;;9.98;;
68806;SDS011;55800;54.272;18.558;2023-11-18T12:30:42;23.00;;;12.88;;
68806;SDS011;55800;54.272;18.558;2023-11-18T12:33:24;19.35;;;10.90;;
68806;SDS011;55800;54.272;18.558;2023-11-18T12:36:06;19.48;;;10.65;;
68806;SDS011;55800;54.272;18.558;2023-11-18T12:42:11;17.65;;;10.38;;
68806;SDS011;55800;54.272;18.558;2023-11-18T12:45:12;16.23;;;9.18;;
68806;SDS011;55800;54.272;18.558;2023-11-18T12:48:04;20.52;;;10.60;;
68806;SDS011;55800;54.272;18.558;2023-11-18T12:50:39;16.20;;;8.70;;
68806;SDS011;55800;54.272;18.558;2023-11-18T12:53:13;17.27;;;9.93;;
68806;SDS011;55800;54.272;18.558;2023-11-18T12:55:46;18.05;;;11.38;;
68806;SDS011;55800;54.272;18.558;2023-11-18T12:58:24;19.60;;;10.50;;
68806;SDS011;55800;54.272;18.558;2023-11-18T13:00:57;23.80;;;11.82;;
68806;SDS011;55800;54.272;18.558;2023-11-18T13:03:27;15.75;;;9.52;;
68806;SDS011;55800;54.272;18.558;2023-11-18T13:05:58;21.25;;;11.13;;
68806;SDS011;55800;54.272;18.558;2023-11-18T13:08:27;19.60;;;10.50;;
68806;SDS011;55800;54.272;18.558;2023-11-18T13:10:57;17.50;;;10.65;;
68806;SDS011;55800;54.272;18.558;2023-11-18T13:13:33;20.20;;;10.20;;
68806;SDS011;55800;54.272;18.558;2023-11-18T13:16:05;21.70;;;10.85;;
68806;SDS011;55800;54.272;18.558;2023-11-18T13:18:42;23.67;;;12.90;;
68806;SDS011;55800;54.272;18.558;2023-11-18T13:21:14;20.73;;;12.73;;
68806;SDS011;55800;54.272;18.558;2023-11-18T13:23:47;18.95;;;10.68;;
68806;SDS011;55800;54.272;18.558;2023-11-18T13:26:19;22.70;;;11.95;;
68806;SDS011;55800;54.272;18.558;2023-11-18T13:31:20;22.33;;;12.10;;
68806;SDS011;55800;54.272;18.558;2023-11-18T13:33:49;20.80;;;11.63;;
68806;SDS011;55800;54.272;18.558;2023-11-18T13:36:20;20.40;;;11.35;;
68806;SDS011;55800;54.272;18.558;2023-11-18T13:38:51;20.67;;;11.30;;
68806;SDS011;55800;54.272;18.558;2023-11-18T13:41:28;24.02;;;12.10;;
68806;SDS011;55800;54.272;18.558;2023-11-18T13:43:59;23.02;;;11.52;;
68806;SDS011;55800;54.272;18.558;2023-11-18T13:46:31;24.95;;;12.15;;
68806;SDS011;55800;54.272;18.558;2023-11-18T13:49:01;21.65;;;12.25;;
68806;SDS011;55800;54.272;18.558;2023-11-18T13:51:33;24.27;;;11.57;;
68806;SDS011;55800;54.272;18.558;2023-11-18T13:54:03;24.85;;;13.30;;
68806;SDS011;55800;54.272;18.558;2023-11-18T13:56:34;33.13;;;16.73;;
68806;SDS011;55800;54.272;18.558;2023-11-18T13:59:03;30.13;;;17.38;;
68806;SDS011;55800;54.272;18.558;2023-11-18T14:01:35;20.45;;;11.77;;
68806;SDS011;55800;54.272;18.558;2023-11-18T14:04:05;23.40;;;13.32;;
68806;SDS011;55800;54.272;18.558;2023-11-18T14:06:36;19.02;;;11.23;;
68806;SDS011;55800;54.272;18.558;2023-11-18T14:09:06;23.67;;;13.13;;
68806;SDS011;55800;54.272;18.558;2023-11-18T14:11:38;24.17;;;13.68;;
68806;SDS011;55800;54.272;18.558;2023-11-18T14:14:08;27.85;;;13.70;;
68806;SDS011;55800;54.272;18.558;2023-11-18T14:16:39;34.97;;;19.63;;
68806;SDS011;55800;54.272;18.558;2023-11-18T14:19:08;35.88;;;20.08;;
68806;SDS011;55800;54.272;18.558;2023-11-18T14:21:38;29.95;;;17.00;;
68806;SDS011;55800;54.272;18.558;2023-11-18T14:26:39;29.75;;;16.90;;
68806;SDS011;55800;54.272;18.558;2023-11-18T14:29:09;30.38;;;16.05;;
68806;SDS011;55800;54.272;18.558;2023-11-18T14:31:41;33.05;;;16.73;;
68806;SDS011;55800;54.272;18.558;2023-11-18T14:34:10;32.22;;;16.40;;
68806;SDS011;55800;54.272;18.558;2023-11-18T14:36:41;31.70;;;16.20;;
68806;SDS011;55800;54.272;18.558;2023-11-18T14:39:11;27.00;;;16.67;;
68806;SDS011;55800;54.272;18.558;2023-11-18T14:41:41;31.83;;;17.13;;
68806;SDS011;55800;54.272;18.558;2023-11-18T14:44:11;32.53;;;17.23;;
68806;SDS011;55800;54.272;18.558;2023-11-18T14:49:12;37.75;;;17.42;;
68806;SDS011;55800;54.272;18.558;2023-11-18T14:51:42;36.50;;;18.95;;
68806;SDS011;55800;54.272;18.558;2023-11-18T14:54:11;40.75;;;17.50;;
68806;SDS011;55800;54.272;18.558;2023-11-18T14:56:41;37.28;;;19.00;;
68806;SDS011;55800;54.272;18.558;2023-11-18T14:59:10;35.83;;;18.75;;
68806;SDS011;55800;54.272;18.558;2023-11-18T15:01:39;31.40;;;17.65;;
68806;SDS011;55800;54.272;18.558;2023-11-18T15:04:12;28.42;;;16.80;;
68806;SDS011;55800;54.272;18.558;2023-11-18T15:06:42;30.55;;;17.98;;
68806;SDS011;55800;54.272;18.558;2023-11-18T15:09:12;32.90;;;17.63;;
68806;SDS011;55800;54.272;18.558;2023-11-18T15:11:41;24.77;;;15.98;;
68806;SDS011;55800;54.272;18.558;2023-11-18T15:14:12;31.52;;;17.13;;
68806;SDS011;55800;54.272;18.558;2023-11-18T15:16:42;28.20;;;15.40;;
68806;SDS011;55800;54.272;18.558;2023-11-18T15:19:14;34.65;;;16.40;;
68806;SDS011;55800;54.272;18.558;2023-11-18T15:21:45;30.52;;;14.45;;
68806;SDS011;55800;54.272;18.558;2023-11-18T15:24:14;39.95;;;17.65;;
68806;SDS011;55800;54.272;18.558;2023-11-18T15:26:44;34.78;;;17.75;;
68806;SDS011;55800;54.272;18.558;2023-11-18T15:29:17;31.00;;;16.58;;
68806;SDS011;55800;54.272;18.558;2023-11-18T15:31:47;33.97;;;18.55;;
68806;SDS011;55800;54.272;18.558;2023-11-18T15:34:18;31.98;;;17.70;;